Terminal Aerodrome Forecast
Issued by NWS

Home | Current Version | Previous Version | Text Only | Print | Product List | Glossary On
Versions: 1 2 3 4 5 6 7 8 9 10 11 12 13
000
FTUS44 KEPZ 020541
TAFDMN
TAF
KDMN 020541Z 0206/0306 27009KT P6SM FEW250
     FM020800 30010KT P6SM FEW130 SCT250
     FM022000 26006KT P6SM VCTS SCT090CB SCT130 BKN250
     FM030500 31011KT P6SM SCT090 BKN130 BKN250=

USA.gov is the U.S. government's official web portal to all federal, state and local government web resources and services.